sensor_id;sensor_type;location;lat;lon;timestamp;temperature;humidity
7876;DHT22;69649;53.712;9.680;2023-05-15T00:00:56;12.10;63.40
7876;DHT22;69649;53.712;9.680;2023-05-15T00:03:21;12.00;63.50
7876;DHT22;69649;53.712;9.680;2023-05-15T00:05:47;12.00;63.60
7876;DHT22;69649;53.712;9.680;2023-05-15T00:08:13;11.90;63.90
7876;DHT22;69649;53.712;9.680;2023-05-15T00:10:39;11.90;63.90
7876;DHT22;69649;53.712;9.680;2023-05-15T00:13:05;11.70;64.50
7876;DHT22;69649;53.712;9.680;2023-05-15T00:15:30;11.70;64.80
7876;DHT22;69649;53.712;9.680;2023-05-15T00:17:56;11.50;65.00
7876;DHT22;69649;53.712;9.680;2023-05-15T00:20:22;11.50;65.10
7876;DHT22;69649;53.712;9.680;2023-05-15T00:22:48;11.50;65.30
7876;DHT22;69649;53.712;9.680;2023-05-15T00:25:14;11.50;65.40
7876;DHT22;69649;53.712;9.680;2023-05-15T00:27:39;11.40;65.60
7876;DHT22;69649;53.712;9.680;2023-05-15T00:30:06;11.30;65.70
7876;DHT22;69649;53.712;9.680;2023-05-15T00:32:32;11.20;65.70
7876;DHT22;69649;53.712;9.680;2023-05-15T00:34:57;11.20;65.90
7876;DHT22;69649;53.712;9.680;2023-05-15T00:37:23;11.10;66.20
7876;DHT22;69649;53.712;9.680;2023-05-15T00:39:49;11.10;65.90
7876;DHT22;69649;53.712;9.680;2023-05-15T00:42:16;11.10;66.00
7876;DHT22;69649;53.712;9.680;2023-05-15T00:44:43;11.10;66.00
7876;DHT22;69649;53.712;9.680;2023-05-15T00:47:10;11.10;65.90
7876;DHT22;69649;53.712;9.680;2023-05-15T00:49:36;11.00;66.10
7876;DHT22;69649;53.712;9.680;2023-05-15T00:52:03;11.00;66.10
7876;DHT22;69649;53.712;9.680;2023-05-15T00:54:31;11.00;66.00
7876;DHT22;69649;53.712;9.680;2023-05-15T00:56:58;11.00;66.20
7876;DHT22;69649;53.712;9.680;2023-05-15T00:59:29;10.90;66.20
7876;DHT22;69649;53.712;9.680;2023-05-15T01:01:55;10.90;66.40
7876;DHT22;69649;53.712;9.680;2023-05-15T01:04:20;10.90;66.30
7876;DHT22;69649;53.712;9.680;2023-05-15T01:06:47;10.80;66.30
7876;DHT22;69649;53.712;9.680;2023-05-15T01:09:18;10.80;66.20
7876;DHT22;69649;53.712;9.680;2023-05-15T01:11:46;10.80;66.30
7876;DHT22;69649;53.712;9.680;2023-05-15T01:14:12;10.70;66.80
7876;DHT22;69649;53.712;9.680;2023-05-15T01:16:38;10.70;66.80
7876;DHT22;69649;53.712;9.680;2023-05-15T01:19:04;10.80;66.70
7876;DHT22;69649;53.712;9.680;2023-05-15T01:21:53;10.70;66.50
7876;DHT22;69649;53.712;9.680;2023-05-15T01:32:18;10.70;66.10
7876;DHT22;69649;53.712;9.680;2023-05-15T01:37:15;10.50;66.80
7876;DHT22;69649;53.712;9.680;2023-05-15T01:39:43;10.50;66.60
7876;DHT22;69649;53.712;9.680;2023-05-15T01:42:12;10.40;66.90
7876;DHT22;69649;53.712;9.680;2023-05-15T01:44:43;10.40;67.00
7876;DHT22;69649;53.712;9.680;2023-05-15T01:47:14;10.30;67.30
7876;DHT22;69649;53.712;9.680;2023-05-15T01:49:43;10.30;67.40
7876;DHT22;69649;53.712;9.680;2023-05-15T01:52:17;10.30;67.70
7876;DHT22;69649;53.712;9.680;2023-05-15T01:54:45;10.30;67.80
7876;DHT22;69649;53.712;9.680;2023-05-15T01:57:12;10.20;67.60
7876;DHT22;69649;53.712;9.680;2023-05-15T01:59:40;10.20;67.40
7876;DHT22;69649;53.712;9.680;2023-05-15T02:02:07;10.30;67.00
7876;DHT22;69649;53.712;9.680;2023-05-15T02:04:35;10.30;66.70
7876;DHT22;69649;53.712;9.680;2023-05-15T02:07:03;10.30;66.80
7876;DHT22;69649;53.712;9.680;2023-05-15T02:09:30;10.20;67.00
7876;DHT22;69649;53.712;9.680;2023-05-15T02:11:58;10.10;67.00
7876;DHT22;69649;53.712;9.680;2023-05-15T02:14:29;10.10;67.20
7876;DHT22;69649;53.712;9.680;2023-05-15T02:16:56;10.10;67.20
7876;DHT22;69649;53.712;9.680;2023-05-15T02:19:22;10.00;67.30
7876;DHT22;69649;53.712;9.680;2023-05-15T02:21:47;10.00;67.30
7876;DHT22;69649;53.712;9.680;2023-05-15T02:24:13;10.00;67.20
7876;DHT22;69649;53.712;9.680;2023-05-15T02:26:50;10.00;67.30
7876;DHT22;69649;53.712;9.680;2023-05-15T02:29:33;10.00;67.40
7876;DHT22;69649;53.712;9.680;2023-05-15T02:34:33;9.80;67.50
7876;DHT22;69649;53.712;9.680;2023-05-15T02:37:00;9.80;67.60
7876;DHT22;69649;53.712;9.680;2023-05-15T02:39:28;9.70;67.70
7876;DHT22;69649;53.712;9.680;2023-05-15T02:41:55;9.70;67.70
7876;DHT22;69649;53.712;9.680;2023-05-15T02:44:22;9.70;67.50
7876;DHT22;69649;53.712;9.680;2023-05-15T02:46:49;9.70;67.80
7876;DHT22;69649;53.712;9.680;2023-05-15T02:49:15;9.70;67.60
7876;DHT22;69649;53.712;9.680;2023-05-15T02:51:41;9.70;67.50
7876;DHT22;69649;53.712;9.680;2023-05-15T02:54:07;9.70;67.50
7876;DHT22;69649;53.712;9.680;2023-05-15T02:56:34;9.70;67.70
7876;DHT22;69649;53.712;9.680;2023-05-15T02:59:00;9.70;68.00
7876;DHT22;69649;53.712;9.680;2023-05-15T03:01:26;9.70;67.80
7876;DHT22;69649;53.712;9.680;2023-05-15T03:03:52;9.70;68.00
7876;DHT22;69649;53.712;9.680;2023-05-15T03:06:17;9.60;67.60
7876;DHT22;69649;53.712;9.680;2023-05-15T03:08:43;9.70;68.10
7876;DHT22;69649;53.712;9.680;2023-05-15T03:11:09;9.60;68.00
7876;DHT22;69649;53.712;9.680;2023-05-15T03:13:35;9.60;67.60
7876;DHT22;69649;53.712;9.680;2023-05-15T03:16:01;9.60;67.80
7876;DHT22;69649;53.712;9.680;2023-05-15T03:18:26;9.60;67.40
7876;DHT22;69649;53.712;9.680;2023-05-15T03:20:52;9.60;67.30
7876;DHT22;69649;53.712;9.680;2023-05-15T03:23:18;9.60;67.80
7876;DHT22;69649;53.712;9.680;2023-05-15T03:25:43;9.60;67.90
7876;DHT22;69649;53.712;9.680;2023-05-15T03:28:09;9.60;68.00
7876;DHT22;69649;53.712;9.680;2023-05-15T03:30:36;9.60;67.90
7876;DHT22;69649;53.712;9.680;2023-05-15T03:33:01;9.60;67.80
7876;DHT22;69649;53.712;9.680;2023-05-15T03:35:35;9.60;67.90
7876;DHT22;69649;53.712;9.680;2023-05-15T03:38:01;9.60;67.90
7876;DHT22;69649;53.712;9.680;2023-05-15T03:40:27;9.60;67.70
7876;DHT22;69649;53.712;9.680;2023-05-15T03:42:58;9.70;67.80
7876;DHT22;69649;53.712;9.680;2023-05-15T03:45:24;9.60;66.00
7876;DHT22;69649;53.712;9.680;2023-05-15T03:47:50;9.70;65.80
7876;DHT22;69649;53.712;9.680;2023-05-15T03:50:16;9.70;67.10
7876;DHT22;69649;53.712;9.680;2023-05-15T03:52:42;9.70;66.20
7876;DHT22;69649;53.712;9.680;2023-05-15T03:55:08;9.70;66.50
7876;DHT22;69649;53.712;9.680;2023-05-15T03:57:33;9.70;67.30
7876;DHT22;69649;53.712;9.680;2023-05-15T04:00:00;9.70;67.00
7876;DHT22;69649;53.712;9.680;2023-05-15T04:02:27;9.70;67.50
7876;DHT22;69649;53.712;9.680;2023-05-15T04:04:53;9.70;67.90
7876;DHT22;69649;53.712;9.680;2023-05-15T04:07:19;9.70;68.00
7876;DHT22;69649;53.712;9.680;2023-05-15T04:09:44;9.70;68.20
7876;DHT22;69649;53.712;9.680;2023-05-15T04:12:10;9.80;68.30
7876;DHT22;69649;53.712;9.680;2023-05-15T04:14:36;9.80;68.20
7876;DHT22;69649;53.712;9.680;2023-05-15T04:17:02;9.90;68.50
7876;DHT22;69649;53.712;9.680;2023-05-15T04:19:28;10.00;67.30
7876;DHT22;69649;53.712;9.680;2023-05-15T04:21:54;10.00;68.50
7876;DHT22;69649;53.712;9.680;2023-05-15T04:24:19;10.00;68.20
7876;DHT22;69649;53.712;9.680;2023-05-15T04:26:45;10.10;68.00
7876;DHT22;69649;53.712;9.680;2023-05-15T04:29:11;10.20;65.70
7876;DHT22;69649;53.712;9.680;2023-05-15T04:31:36;10.20;65.40
7876;DHT22;69649;53.712;9.680;2023-05-15T04:34:03;10.30;66.90
7876;DHT22;69649;53.712;9.680;2023-05-15T04:36:30;10.30;64.10
7876;DHT22;69649;53.712;9.680;2023-05-15T04:38:56;10.40;66.10
7876;DHT22;69649;53.712;9.680;2023-05-15T04:41:22;10.50;65.80
7876;DHT22;69649;53.712;9.680;2023-05-15T04:43:48;10.50;63.60
7876;DHT22;69649;53.712;9.680;2023-05-15T04:46:13;10.60;62.90
7876;DHT22;69649;53.712;9.680;2023-05-15T04:48:39;10.70;65.50
7876;DHT22;69649;53.712;9.680;2023-05-15T04:51:05;10.80;64.90
7876;DHT22;69649;53.712;9.680;2023-05-15T04:53:31;10.80;63.30
7876;DHT22;69649;53.712;9.680;2023-05-15T04:55:57;10.90;63.30
7876;DHT22;69649;53.712;9.680;2023-05-15T04:58:23;10.90;65.50
7876;DHT22;69649;53.712;9.680;2023-05-15T05:00:49;11.00;63.60
7876;DHT22;69649;53.712;9.680;2023-05-15T05:03:15;11.10;66.10
7876;DHT22;69649;53.712;9.680;2023-05-15T05:05:40;11.10;66.60
7876;DHT22;69649;53.712;9.680;2023-05-15T05:08:06;11.20;65.00
7876;DHT22;69649;53.712;9.680;2023-05-15T05:10:32;11.30;64.20
7876;DHT22;69649;53.712;9.680;2023-05-15T05:12:58;11.40;63.60
7876;DHT22;69649;53.712;9.680;2023-05-15T05:15:23;11.50;60.90
7876;DHT22;69649;53.712;9.680;2023-05-15T05:17:49;11.50;61.40
7876;DHT22;69649;53.712;9.680;2023-05-15T05:20:15;11.70;62.20
7876;DHT22;69649;53.712;9.680;2023-05-15T05:22:41;11.70;62.40
7876;DHT22;69649;53.712;9.680;2023-05-15T05:25:07;11.90;64.30
7876;DHT22;69649;53.712;9.680;2023-05-15T05:27:33;12.00;65.20
7876;DHT22;69649;53.712;9.680;2023-05-15T05:30:02;12.10;63.20
7876;DHT22;69649;53.712;9.680;2023-05-15T05:32:27;12.20;63.10
7876;DHT22;69649;53.712;9.680;2023-05-15T05:34:53;12.20;62.40
7876;DHT22;69649;53.712;9.680;2023-05-15T05:37:20;12.40;63.80
7876;DHT22;69649;53.712;9.680;2023-05-15T05:39:45;12.50;63.00
7876;DHT22;69649;53.712;9.680;2023-05-15T05:42:11;12.50;63.40
7876;DHT22;69649;53.712;9.680;2023-05-15T05:44:37;12.70;63.90
7876;DHT22;69649;53.712;9.680;2023-05-15T05:47:03;12.80;63.60
7876;DHT22;69649;53.712;9.680;2023-05-15T05:49:29;12.90;63.70
7876;DHT22;69649;53.712;9.680;2023-05-15T05:51:55;12.90;64.30
7876;DHT22;69649;53.712;9.680;2023-05-15T05:54:20;13.00;64.10
7876;DHT22;69649;53.712;9.680;2023-05-15T05:56:46;13.10;64.50
7876;DHT22;69649;53.712;9.680;2023-05-15T05:59:12;13.20;64.40
7876;DHT22;69649;53.712;9.680;2023-05-15T06:01:38;13.30;63.90
7876;DHT22;69649;53.712;9.680;2023-05-15T06:04:04;13.50;63.30
7876;DHT22;69649;53.712;9.680;2023-05-15T06:06:29;13.60;62.90
7876;DHT22;69649;53.712;9.680;2023-05-15T06:08:55;13.90;62.40
7876;DHT22;69649;53.712;9.680;2023-05-15T06:11:32;14.00;62.00
7876;DHT22;69649;53.712;9.680;2023-05-15T06:13:57;14.20;62.40
7876;DHT22;69649;53.712;9.680;2023-05-15T06:16:23;14.40;62.50
7876;DHT22;69649;53.712;9.680;2023-05-15T06:18:51;14.50;61.30
7876;DHT22;69649;53.712;9.680;2023-05-15T06:21:17;14.70;61.40
7876;DHT22;69649;53.712;9.680;2023-05-15T06:23:45;14.90;61.10
7876;DHT22;69649;53.712;9.680;2023-05-15T06:26:11;15.00;61.50
7876;DHT22;69649;53.712;9.680;2023-05-15T06:28:36;15.10;60.70
7876;DHT22;69649;53.712;9.680;2023-05-15T06:31:02;15.30;61.10
7876;DHT22;69649;53.712;9.680;2023-05-15T06:33:28;15.40;60.50
7876;DHT22;69649;53.712;9.680;2023-05-15T06:35:54;15.60;59.20
7876;DHT22;69649;53.712;9.680;2023-05-15T06:38:19;15.80;59.40
7876;DHT22;69649;53.712;9.680;2023-05-15T06:40:45;16.00;59.50
7876;DHT22;69649;53.712;9.680;2023-05-15T06:43:11;16.00;58.60
7876;DHT22;69649;53.712;9.680;2023-05-15T06:45:37;16.10;58.90
7876;DHT22;69649;53.712;9.680;2023-05-15T06:48:09;16.30;58.40
7876;DHT22;69649;53.712;9.680;2023-05-15T06:50:34;16.40;57.50
7876;DHT22;69649;53.712;9.680;2023-05-15T06:53:00;16.50;57.60
7876;DHT22;69649;53.712;9.680;2023-05-15T06:55:26;16.70;57.50
7876;DHT22;69649;53.712;9.680;2023-05-15T06:57:52;16.80;57.70
7876;DHT22;69649;53.712;9.680;2023-05-15T07:00:23;16.90;56.00
7876;DHT22;69649;53.712;9.680;2023-05-15T07:02:49;17.00;56.60
7876;DHT22;69649;53.712;9.680;2023-05-15T07:05:14;17.00;57.60
7876;DHT22;69649;53.712;9.680;2023-05-15T07:07:40;17.00;58.10
7876;DHT22;69649;53.712;9.680;2023-05-15T07:10:08;17.20;58.20
7876;DHT22;69649;53.712;9.680;2023-05-15T07:12:34;17.20;57.70
7876;DHT22;69649;53.712;9.680;2023-05-15T07:15:00;17.30;58.00
7876;DHT22;69649;53.712;9.680;2023-05-15T07:17:25;17.40;58.00
7876;DHT22;69649;53.712;9.680;2023-05-15T07:19:51;17.50;57.40
7876;DHT22;69649;53.712;9.680;2023-05-15T07:22:17;17.50;58.20
7876;DHT22;69649;53.712;9.680;2023-05-15T07:24:42;17.60;57.60
7876;DHT22;69649;53.712;9.680;2023-05-15T07:27:08;17.60;56.70
7876;DHT22;69649;53.712;9.680;2023-05-15T07:29:36;17.80;56.80
7876;DHT22;69649;53.712;9.680;2023-05-15T07:32:02;17.80;57.20
7876;DHT22;69649;53.712;9.680;2023-05-15T07:34:27;18.00;57.00
7876;DHT22;69649;53.712;9.680;2023-05-15T07:36:53;18.10;56.20
7876;DHT22;69649;53.712;9.680;2023-05-15T07:39:19;18.10;56.00
7876;DHT22;69649;53.712;9.680;2023-05-15T07:41:45;18.30;56.60
7876;DHT22;69649;53.712;9.680;2023-05-15T07:44:11;18.40;55.20
7876;DHT22;69649;53.712;9.680;2023-05-15T07:46:37;18.50;55.20
7876;DHT22;69649;53.712;9.680;2023-05-15T07:49:03;18.60;54.60
7876;DHT22;69649;53.712;9.680;2023-05-15T07:51:29;18.70;53.60
7876;DHT22;69649;53.712;9.680;2023-05-15T07:53:55;18.70;54.50
7876;DHT22;69649;53.712;9.680;2023-05-15T07:56:22;18.90;53.50
7876;DHT22;69649;53.712;9.680;2023-05-15T07:58:47;18.90;54.50
7876;DHT22;69649;53.712;9.680;2023-05-15T08:01:13;19.10;54.50
7876;DHT22;69649;53.712;9.680;2023-05-15T08:03:39;19.10;54.10
7876;DHT22;69649;53.712;9.680;2023-05-15T08:06:05;19.20;54.00
7876;DHT22;69649;53.712;9.680;2023-05-15T08:08:33;19.40;53.80
7876;DHT22;69649;53.712;9.680;2023-05-15T08:10:59;19.60;53.70
7876;DHT22;69649;53.712;9.680;2023-05-15T08:13:25;19.70;51.70
7876;DHT22;69649;53.712;9.680;2023-05-15T08:15:51;19.50;52.90
7876;DHT22;69649;53.712;9.680;2023-05-15T08:18:18;19.80;53.40
7876;DHT22;69649;53.712;9.680;2023-05-15T08:20:43;19.90;52.80
7876;DHT22;69649;53.712;9.680;2023-05-15T08:23:09;20.00;52.70
7876;DHT22;69649;53.712;9.680;2023-05-15T08:25:35;20.10;52.50
7876;DHT22;69649;53.712;9.680;2023-05-15T08:28:01;20.30;52.00
7876;DHT22;69649;53.712;9.680;2023-05-15T08:30:28;20.40;52.00
7876;DHT22;69649;53.712;9.680;2023-05-15T08:32:54;20.50;51.80
7876;DHT22;69649;53.712;9.680;2023-05-15T08:35:19;20.90;50.80
7876;DHT22;69649;53.712;9.680;2023-05-15T08:37:52;20.90;49.80
7876;DHT22;69649;53.712;9.680;2023-05-15T08:40:20;21.00;48.30
7876;DHT22;69649;53.712;9.680;2023-05-15T08:42:53;20.90;49.00
7876;DHT22;69649;53.712;9.680;2023-05-15T08:45:20;21.00;48.70
7876;DHT22;69649;53.712;9.680;2023-05-15T08:47:45;21.10;47.00
7876;DHT22;69649;53.712;9.680;2023-05-15T08:50:15;21.10;47.50
7876;DHT22;69649;53.712;9.680;2023-05-15T08:52:44;21.10;46.60
7876;DHT22;69649;53.712;9.680;2023-05-15T08:55:13;21.30;46.70
7876;DHT22;69649;53.712;9.680;2023-05-15T08:57:39;21.20;44.90
7876;DHT22;69649;53.712;9.680;2023-05-15T09:00:07;21.00;45.90
7876;DHT22;69649;53.712;9.680;2023-05-15T09:02:35;21.30;45.20
7876;DHT22;69649;53.712;9.680;2023-05-15T09:05:01;21.60;45.60
7876;DHT22;69649;53.712;9.680;2023-05-15T09:07:30;21.90;45.10
7876;DHT22;69649;53.712;9.680;2023-05-15T09:09:57;21.90;45.00
7876;DHT22;69649;53.712;9.680;2023-05-15T09:12:24;21.70;44.50
7876;DHT22;69649;53.712;9.680;2023-05-15T09:17:36;22.00;45.90
7876;DHT22;69649;53.712;9.680;2023-05-15T09:20:03;22.20;46.00
7876;DHT22;69649;53.712;9.680;2023-05-15T09:22:34;22.50;45.80
7876;DHT22;69649;53.712;9.680;2023-05-15T09:25:01;22.40;45.80
7876;DHT22;69649;53.712;9.680;2023-05-15T09:27:28;22.30;45.70
7876;DHT22;69649;53.712;9.680;2023-05-15T09:29:54;22.50;45.80
7876;DHT22;69649;53.712;9.680;2023-05-15T09:32:25;22.40;43.90
7876;DHT22;69649;53.712;9.680;2023-05-15T09:34:52;22.20;44.20
7876;DHT22;69649;53.712;9.680;2023-05-15T09:37:31;22.20;45.40
7876;DHT22;69649;53.712;9.680;2023-05-15T09:40:08;22.40;44.50
7876;DHT22;69649;53.712;9.680;2023-05-15T09:42:35;22.30;44.10
7876;DHT22;69649;53.712;9.680;2023-05-15T09:45:03;22.50;44.20
7876;DHT22;69649;53.712;9.680;2023-05-15T09:47:29;22.50;44.50
7876;DHT22;69649;53.712;9.680;2023-05-15T09:49:54;22.50;44.40
7876;DHT22;69649;53.712;9.680;2023-05-15T09:52:21;22.70;44.90
7876;DHT22;69649;53.712;9.680;2023-05-15T09:54:50;23.10;44.70
7876;DHT22;69649;53.712;9.680;2023-05-15T09:57:20;23.00;44.40
7876;DHT22;69649;53.712;9.680;2023-05-15T09:59:48;22.90;43.00
7876;DHT22;69649;53.712;9.680;2023-05-15T10:02:25;22.80;44.20
7876;DHT22;69649;53.712;9.680;2023-05-15T10:04:59;22.70;43.00
7876;DHT22;69649;53.712;9.680;2023-05-15T10:07:33;22.80;44.80
7876;DHT22;69649;53.712;9.680;2023-05-15T10:10:03;22.80;45.70
7876;DHT22;69649;53.712;9.680;2023-05-15T10:12:30;22.80;46.50
7876;DHT22;69649;53.712;9.680;2023-05-15T10:14:57;23.10;43.30
7876;DHT22;69649;53.712;9.680;2023-05-15T10:17:26;23.40;42.50
7876;DHT22;69649;53.712;9.680;2023-05-15T10:19:52;23.60;41.00
7876;DHT22;69649;53.712;9.680;2023-05-15T10:22:22;23.50;41.70
7876;DHT22;69649;53.712;9.680;2023-05-15T10:25:00;23.50;41.90
7876;DHT22;69649;53.712;9.680;2023-05-15T10:27:19;23.40;42.30
7876;DHT22;69649;53.712;9.680;2023-05-15T10:29:49;23.70;41.80
7876;DHT22;69649;53.712;9.680;2023-05-15T10:32:16;23.90;43.20
7876;DHT22;69649;53.712;9.680;2023-05-15T10:34:42;24.00;43.10
7876;DHT22;69649;53.712;9.680;2023-05-15T10:37:11;24.20;43.00
7876;DHT22;69649;53.712;9.680;2023-05-15T10:39:38;23.70;40.60
7876;DHT22;69649;53.712;9.680;2023-05-15T10:42:06;22.50;42.70
7876;DHT22;69649;53.712;9.680;2023-05-15T10:44:32;22.00;43.30
7876;DHT22;69649;53.712;9.680;2023-05-15T10:46:58;21.80;43.60
7876;DHT22;69649;53.712;9.680;2023-05-15T10:49:25;21.70;42.50
7876;DHT22;69649;53.712;9.680;2023-05-15T10:51:51;22.00;42.90
7876;DHT22;69649;53.712;9.680;2023-05-15T10:54:17;22.40;41.80
7876;DHT22;69649;53.712;9.680;2023-05-15T10:56:49;22.30;42.00
7876;DHT22;69649;53.712;9.680;2023-05-15T10:59:15;22.30;41.50
7876;DHT22;69649;53.712;9.680;2023-05-15T11:01:44;22.10;42.10
7876;DHT22;69649;53.712;9.680;2023-05-15T11:04:14;21.70;42.20
7876;DHT22;69649;53.712;9.680;2023-05-15T11:06:47;21.70;44.20
7876;DHT22;69649;53.712;9.680;2023-05-15T11:11:57;21.70;47.50
7876;DHT22;69649;53.712;9.680;2023-05-15T11:22:25;21.50;47.80
7876;DHT22;69649;53.712;9.680;2023-05-15T11:27:23;21.00;47.90
7876;DHT22;69649;53.712;9.680;2023-05-15T11:30:16;21.00;48.40
7876;DHT22;69649;53.712;9.680;2023-05-15T11:32:58;21.10;49.20
7876;DHT22;69649;53.712;9.680;2023-05-15T11:35:47;21.10;49.00
7876;DHT22;69649;53.712;9.680;2023-05-15T11:40:47;21.30;48.50
7876;DHT22;69649;53.712;9.680;2023-05-15T11:43:19;21.50;48.80
7876;DHT22;69649;53.712;9.680;2023-05-15T11:45:57;21.50;49.40
7876;DHT22;69649;53.712;9.680;2023-05-15T11:48:15;21.70;49.60
7876;DHT22;69649;53.712;9.680;2023-05-15T11:50:42;22.00;50.20
7876;DHT22;69649;53.712;9.680;2023-05-15T11:53:09;22.30;50.20
7876;DHT22;69649;53.712;9.680;2023-05-15T11:55:36;22.40;49.70
7876;DHT22;69649;53.712;9.680;2023-05-15T11:58:02;22.60;49.80
7876;DHT22;69649;53.712;9.680;2023-05-15T12:00:29;22.90;49.30
7876;DHT22;69649;53.712;9.680;2023-05-15T12:02:55;23.00;50.10
7876;DHT22;69649;53.712;9.680;2023-05-15T12:05:22;23.00;51.30
7876;DHT22;69649;53.712;9.680;2023-05-15T12:07:47;23.30;50.70
7876;DHT22;69649;53.712;9.680;2023-05-15T12:10:14;23.30;50.60
7876;DHT22;69649;53.712;9.680;2023-05-15T12:12:41;23.10;51.10
7876;DHT22;69649;53.712;9.680;2023-05-15T12:15:11;23.40;50.20
7876;DHT22;69649;53.712;9.680;2023-05-15T12:17:37;23.40;50.50
7876;DHT22;69649;53.712;9.680;2023-05-15T12:20:05;23.30;50.50
7876;DHT22;69649;53.712;9.680;2023-05-15T12:22:37;23.40;50.30
7876;DHT22;69649;53.712;9.680;2023-05-15T12:25:05;23.50;50.30
7876;DHT22;69649;53.712;9.680;2023-05-15T12:27:35;23.10;50.70
7876;DHT22;69649;53.712;9.680;2023-05-15T12:30:08;23.50;50.20
7876;DHT22;69649;53.712;9.680;2023-05-15T12:32:36;23.70;50.70
7876;DHT22;69649;53.712;9.680;2023-05-15T12:35:03;23.20;51.30
7876;DHT22;69649;53.712;9.680;2023-05-15T12:37:37;23.10;51.50
7876;DHT22;69649;53.712;9.680;2023-05-15T12:40:05;22.70;53.00
7876;DHT22;69649;53.712;9.680;2023-05-15T12:42:40;22.20;52.40
7876;DHT22;69649;53.712;9.680;2023-05-15T12:45:18;21.70;52.50
7876;DHT22;69649;53.712;9.680;2023-05-15T12:47:47;21.60;52.90
7876;DHT22;69649;53.712;9.680;2023-05-15T12:50:18;21.50;53.20
7876;DHT22;69649;53.712;9.680;2023-05-15T12:52:53;21.70;52.50
7876;DHT22;69649;53.712;9.680;2023-05-15T12:55:28;21.30;53.40
7876;DHT22;69649;53.712;9.680;2023-05-15T13:00:33;21.40;52.80
7876;DHT22;69649;53.712;9.680;2023-05-15T13:03:00;21.10;53.50
7876;DHT22;69649;53.712;9.680;2023-05-15T13:05:30;21.10;53.20
7876;DHT22;69649;53.712;9.680;2023-05-15T13:08:03;21.00;53.10
7876;DHT22;69649;53.712;9.680;2023-05-15T13:10:33;21.20;53.70
7876;DHT22;69649;53.712;9.680;2023-05-15T13:12:59;21.40;54.00
7876;DHT22;69649;53.712;9.680;2023-05-15T13:15:34;21.50;52.90
7876;DHT22;69649;53.712;9.680;2023-05-15T13:18:05;21.80;52.50
7876;DHT22;69649;53.712;9.680;2023-05-15T13:20:34;22.00;52.60
7876;DHT22;69649;53.712;9.680;2023-05-15T13:23:00;22.50;52.30
7876;DHT22;69649;53.712;9.680;2023-05-15T13:25:26;22.20;52.90
7876;DHT22;69649;53.712;9.680;2023-05-15T13:27:59;22.50;51.90
7876;DHT22;69649;53.712;9.680;2023-05-15T13:30:25;22.50;52.20
7876;DHT22;69649;53.712;9.680;2023-05-15T13:32:51;22.00;53.10
7876;DHT22;69649;53.712;9.680;2023-05-15T13:35:17;21.70;53.30
7876;DHT22;69649;53.712;9.680;2023-05-15T13:37:43;21.50;54.80
7876;DHT22;69649;53.712;9.680;2023-05-15T13:40:10;21.50;54.20
7876;DHT22;69649;53.712;9.680;2023-05-15T13:42:39;21.00;55.00
7876;DHT22;69649;53.712;9.680;2023-05-15T13:45:11;21.10;54.70
7876;DHT22;69649;53.712;9.680;2023-05-15T13:47:38;20.80;54.80
7876;DHT22;69649;53.712;9.680;2023-05-15T13:50:05;20.80;55.50
7876;DHT22;69649;53.712;9.680;2023-05-15T13:52:31;20.90;55.40
7876;DHT22;69649;53.712;9.680;2023-05-15T13:54:57;21.20;55.10
7876;DHT22;69649;53.712;9.680;2023-05-15T13:57:23;21.30;54.50
7876;DHT22;69649;53.712;9.680;2023-05-15T13:59:48;20.60;55.60
7876;DHT22;69649;53.712;9.680;2023-05-15T14:02:15;20.30;56.90
7876;DHT22;69649;53.712;9.680;2023-05-15T14:04:40;20.70;55.90
7876;DHT22;69649;53.712;9.680;2023-05-15T14:07:06;21.10;56.20
7876;DHT22;69649;53.712;9.680;2023-05-15T14:09:32;21.50;54.60
7876;DHT22;69649;53.712;9.680;2023-05-15T14:11:58;21.50;54.10
7876;DHT22;69649;53.712;9.680;2023-05-15T14:14:24;21.80;54.10
7876;DHT22;69649;53.712;9.680;2023-05-15T14:16:50;22.10;54.00
7876;DHT22;69649;53.712;9.680;2023-05-15T14:19:16;22.00;53.60
7876;DHT22;69649;53.712;9.680;2023-05-15T14:21:41;22.00;54.60
7876;DHT22;69649;53.712;9.680;2023-05-15T14:24:07;21.90;54.70
7876;DHT22;69649;53.712;9.680;2023-05-15T14:26:33;22.10;54.10
7876;DHT22;69649;53.712;9.680;2023-05-15T14:28:59;22.30;53.30
7876;DHT22;69649;53.712;9.680;2023-05-15T14:31:25;22.00;54.20
7876;DHT22;69649;53.712;9.680;2023-05-15T14:33:51;21.50;54.60
7876;DHT22;69649;53.712;9.680;2023-05-15T14:36:17;21.10;55.40
7876;DHT22;69649;53.712;9.680;2023-05-15T14:38:42;20.60;55.80
7876;DHT22;69649;53.712;9.680;2023-05-15T14:41:10;20.70;55.00
7876;DHT22;69649;53.712;9.680;2023-05-15T14:43:36;20.60;54.80
7876;DHT22;69649;53.712;9.680;2023-05-15T14:46:02;20.30;55.30
7876;DHT22;69649;53.712;9.680;2023-05-15T14:48:28;20.30;55.10
7876;DHT22;69649;53.712;9.680;2023-05-15T14:50:55;20.10;55.30
7876;DHT22;69649;53.712;9.680;2023-05-15T14:53:21;20.30;55.30
7876;DHT22;69649;53.712;9.680;2023-05-15T14:55:47;20.00;55.40
7876;DHT22;69649;53.712;9.680;2023-05-15T14:58:13;20.00;55.70
7876;DHT22;69649;53.712;9.680;2023-05-15T15:00:39;20.00;55.80
7876;DHT22;69649;53.712;9.680;2023-05-15T15:03:06;20.00;55.20
7876;DHT22;69649;53.712;9.680;2023-05-15T15:05:31;19.90;55.60
7876;DHT22;69649;53.712;9.680;2023-05-15T15:08:08;20.00;55.60
7876;DHT22;69649;53.712;9.680;2023-05-15T15:10:37;20.00;55.40
7876;DHT22;69649;53.712;9.680;2023-05-15T15:13:14;19.90;55.40
7876;DHT22;69649;53.712;9.680;2023-05-15T15:15:41;20.40;54.30
7876;DHT22;69649;53.712;9.680;2023-05-15T15:18:07;20.90;53.60
7876;DHT22;69649;53.712;9.680;2023-05-15T15:20:33;21.10;53.10
7876;DHT22;69649;53.712;9.680;2023-05-15T15:22:59;21.40;52.20
7876;DHT22;69649;53.712;9.680;2023-05-15T15:25:31;22.50;51.20
7876;DHT22;69649;53.712;9.680;2023-05-15T15:27:57;22.70;50.80
7876;DHT22;69649;53.712;9.680;2023-05-15T15:30:23;23.30;50.30
7876;DHT22;69649;53.712;9.680;2023-05-15T15:32:48;24.30;48.70
7876;DHT22;69649;53.712;9.680;2023-05-15T15:35:14;24.70;47.80
7876;DHT22;69649;53.712;9.680;2023-05-15T15:37:40;23.40;50.00
7876;DHT22;69649;53.712;9.680;2023-05-15T15:40:06;23.00;51.00
7876;DHT22;69649;53.712;9.680;2023-05-15T15:42:35;23.50;50.10
7876;DHT22;69649;53.712;9.680;2023-05-15T15:45:01;23.80;50.30
7876;DHT22;69649;53.712;9.680;2023-05-15T15:47:30;23.80;49.50
7876;DHT22;69649;53.712;9.680;2023-05-15T15:49:59;22.50;51.20
7876;DHT22;69649;53.712;9.680;2023-05-15T15:52:25;21.90;52.70
7876;DHT22;69649;53.712;9.680;2023-05-15T15:54:51;22.30;52.60
7876;DHT22;69649;53.712;9.680;2023-05-15T15:57:19;22.80;51.70
7876;DHT22;69649;53.712;9.680;2023-05-15T15:59:46;23.60;49.30
7876;DHT22;69649;53.712;9.680;2023-05-15T16:02:12;22.10;51.30
7876;DHT22;69649;53.712;9.680;2023-05-15T16:04:38;22.00;52.20
7876;DHT22;69649;53.712;9.680;2023-05-15T16:07:08;23.10;50.70
7876;DHT22;69649;53.712;9.680;2023-05-15T16:09:34;23.00;50.20
7876;DHT22;69649;53.712;9.680;2023-05-15T16:11:59;22.70;50.90
7876;DHT22;69649;53.712;9.680;2023-05-15T16:14:27;22.20;51.70
7876;DHT22;69649;53.712;9.680;2023-05-15T16:16:53;22.00;52.30
7876;DHT22;69649;53.712;9.680;2023-05-15T16:19:21;21.80;52.60
7876;DHT22;69649;53.712;9.680;2023-05-15T16:21:47;21.70;52.20